Arlington, Ohio
Current Conditions -  °F | °C
As of 3:53 AM on Saturday 25 Oct 2014 (Local Time) from KFDY Reporting Station
Broken Clouds Broken Clouds  
Wind Chill:   Ceiling: 9500
Heat Index:   Visibility: 7mi
Dew Point:   Wind: 5mph
Humidity: 90%   Direction: 200°SSW
Pressure: 29.95"   Gusts: NA
Location:  40.89°N, 83.65°W
Report Text: KFDY 250753Z AUTO 20004KT 7SM BKN095 09/08 A2995 RMK AO2 SLP137 T00940078
Loading
Personal Weather Stations






























Interactive Weather Map New forecast layout! Learn more

10-Day Weather Forecast

Advertisements
Track Severe Weather on mobile